sensor_id;sensor_type;location;lat;lon;timestamp;P1;durP1;ratioP1;P2;durP2;ratioP2
18879;SDS011;9572;52.378;13.404;2023-07-20T00:00:10;3.17;;;2.80;;
18879;SDS011;9572;52.378;13.404;2023-07-20T00:02:39;3.67;;;2.92;;
18879;SDS011;9572;52.378;13.404;2023-07-20T00:05:06;4.47;;;3.08;;
18879;SDS011;9572;52.378;13.404;2023-07-20T00:07:33;3.35;;;3.05;;
18879;SDS011;9572;52.378;13.404;2023-07-20T00:10:00;3.33;;;2.95;;
18879;SDS011;9572;52.378;13.404;2023-07-20T00:12:27;5.03;;;4.57;;
18879;SDS011;9572;52.378;13.404;2023-07-20T00:14:55;6.88;;;5.88;;
18879;SDS011;9572;52.378;13.404;2023-07-20T00:17:22;7.10;;;6.10;;
18879;SDS011;9572;52.378;13.404;2023-07-20T00:19:49;9.00;;;7.72;;
18879;SDS011;9572;52.378;13.404;2023-07-20T00:22:16;8.38;;;6.75;;
18879;SDS011;9572;52.378;13.404;2023-07-20T00:24:43;6.68;;;5.95;;
18879;SDS011;9572;52.378;13.404;2023-07-20T00:27:10;5.78;;;5.22;;
18879;SDS011;9572;52.378;13.404;2023-07-20T00:29:37;6.35;;;4.80;;
18879;SDS011;9572;52.378;13.404;2023-07-20T00:32:06;7.88;;;4.38;;
18879;SDS011;9572;52.378;13.404;2023-07-20T00:34:33;4.20;;;3.78;;
18879;SDS011;9572;52.378;13.404;2023-07-20T00:37:00;3.80;;;3.47;;
18879;SDS011;9572;52.378;13.404;2023-07-20T00:39:27;4.88;;;3.80;;
18879;SDS011;9572;52.378;13.404;2023-07-20T00:41:54;3.92;;;3.40;;
18879;SDS011;9572;52.378;13.404;2023-07-20T00:44:21;4.25;;;3.38;;
18879;SDS011;9572;52.378;13.404;2023-07-20T00:46:49;6.13;;;4.18;;
18879;SDS011;9572;52.378;13.404;2023-07-20T00:49:17;5.95;;;3.92;;
18879;SDS011;9572;52.378;13.404;2023-07-20T00:51:47;5.22;;;4.35;;
18879;SDS011;9572;52.378;13.404;2023-07-20T00:54:15;6.30;;;4.07;;
18879;SDS011;9572;52.378;13.404;2023-07-20T00:56:42;3.90;;;3.50;;
18879;SDS011;9572;52.378;13.404;2023-07-20T00:59:10;5.18;;;3.97;;
18879;SDS011;9572;52.378;13.404;2023-07-20T01:01:37;4.20;;;3.35;;
18879;SDS011;9572;52.378;13.404;2023-07-20T01:04:04;8.73;;;4.53;;
18879;SDS011;9572;52.378;13.404;2023-07-20T01:06:34;4.35;;;3.45;;
18879;SDS011;9572;52.378;13.404;2023-07-20T01:09:12;5.70;;;4.25;;
18879;SDS011;9572;52.378;13.404;2023-07-20T01:11:43;3.92;;;3.55;;
18879;SDS011;9572;52.378;13.404;2023-07-20T01:14:20;4.88;;;4.15;;
18879;SDS011;9572;52.378;13.404;2023-07-20T01:16:47;7.90;;;4.03;;
18879;SDS011;9572;52.378;13.404;2023-07-20T01:19:17;5.50;;;4.18;;
18879;SDS011;9572;52.378;13.404;2023-07-20T01:21:47;4.90;;;4.18;;
18879;SDS011;9572;52.378;13.404;2023-07-20T01:24:28;4.40;;;4.00;;
18879;SDS011;9572;52.378;13.404;2023-07-20T01:27:33;5.50;;;4.40;;
18879;SDS011;9572;52.378;13.404;2023-07-20T01:33:13;4.47;;;4.05;;
18879;SDS011;9572;52.378;13.404;2023-07-20T01:35:42;6.35;;;4.32;;
18879;SDS011;9572;52.378;13.404;2023-07-20T01:38:11;4.50;;;4.10;;
18879;SDS011;9572;52.378;13.404;2023-07-20T01:40:39;5.72;;;4.53;;
18879;SDS011;9572;52.378;13.404;2023-07-20T01:43:07;4.85;;;4.45;;
18879;SDS011;9572;52.378;13.404;2023-07-20T01:45:34;4.60;;;4.07;;
18879;SDS011;9572;52.378;13.404;2023-07-20T01:48:01;5.05;;;4.10;;
18879;SDS011;9572;52.378;13.404;2023-07-20T01:50:30;6.68;;;4.63;;
18879;SDS011;9572;52.378;13.404;2023-07-20T01:52:59;7.47;;;4.88;;
18879;SDS011;9572;52.378;13.404;2023-07-20T01:55:26;6.15;;;4.88;;
18879;SDS011;9572;52.378;13.404;2023-07-20T01:57:54;6.80;;;4.85;;
18879;SDS011;9572;52.378;13.404;2023-07-20T02:00:21;4.85;;;4.45;;
18879;SDS011;9572;52.378;13.404;2023-07-20T02:02:49;7.18;;;4.93;;
18879;SDS011;9572;52.378;13.404;2023-07-20T02:05:16;5.53;;;4.55;;
18879;SDS011;9572;52.378;13.404;2023-07-20T02:07:45;5.95;;;5.18;;
18879;SDS011;9572;52.378;13.404;2023-07-20T02:10:12;5.53;;;4.55;;
18879;SDS011;9572;52.378;13.404;2023-07-20T02:12:39;6.65;;;4.82;;
18879;SDS011;9572;52.378;13.404;2023-07-20T02:15:07;5.72;;;4.80;;
18879;SDS011;9572;52.378;13.404;2023-07-20T02:17:35;5.20;;;4.68;;
18879;SDS011;9572;52.378;13.404;2023-07-20T02:20:02;6.93;;;4.53;;
18879;SDS011;9572;52.378;13.404;2023-07-20T02:22:29;4.82;;;4.35;;
18879;SDS011;9572;52.378;13.404;2023-07-20T02:24:58;6.28;;;4.95;;
18879;SDS011;9572;52.378;13.404;2023-07-20T02:27:26;5.90;;;5.10;;
18879;SDS011;9572;52.378;13.404;2023-07-20T02:29:53;6.85;;;5.72;;
18879;SDS011;9572;52.378;13.404;2023-07-20T02:32:20;6.82;;;5.75;;
18879;SDS011;9572;52.378;13.404;2023-07-20T02:34:47;6.28;;;5.30;;
18879;SDS011;9572;52.378;13.404;2023-07-20T02:37:15;6.00;;;5.00;;
18879;SDS011;9572;52.378;13.404;2023-07-20T02:39:42;6.45;;;4.80;;
18879;SDS011;9572;52.378;13.404;2023-07-20T02:42:11;5.50;;;4.78;;
18879;SDS011;9572;52.378;13.404;2023-07-20T02:44:39;5.40;;;4.90;;
18879;SDS011;9572;52.378;13.404;2023-07-20T02:47:06;5.30;;;4.80;;
18879;SDS011;9572;52.378;13.404;2023-07-20T02:49:33;7.57;;;4.68;;
18879;SDS011;9572;52.378;13.404;2023-07-20T02:52:00;9.52;;;6.43;;
18879;SDS011;9572;52.378;13.404;2023-07-20T02:54:28;7.53;;;5.50;;
18879;SDS011;9572;52.378;13.404;2023-07-20T02:56:55;7.50;;;5.15;;
18879;SDS011;9572;52.378;13.404;2023-07-20T02:59:24;6.72;;;5.40;;
18879;SDS011;9572;52.378;13.404;2023-07-20T03:01:51;6.70;;;5.35;;
18879;SDS011;9572;52.378;13.404;2023-07-20T03:04:19;4.75;;;4.20;;
18879;SDS011;9572;52.378;13.404;2023-07-20T03:06:46;5.32;;;4.80;;
18879;SDS011;9572;52.378;13.404;2023-07-20T03:09:13;5.85;;;5.35;;
18879;SDS011;9572;52.378;13.404;2023-07-20T03:11:40;4.72;;;4.38;;
18879;SDS011;9572;52.378;13.404;2023-07-20T03:14:07;5.90;;;5.30;;
18879;SDS011;9572;52.378;13.404;2023-07-20T03:16:39;7.25;;;5.32;;
18879;SDS011;9572;52.378;13.404;2023-07-20T03:19:06;7.15;;;5.47;;
18879;SDS011;9572;52.378;13.404;2023-07-20T03:21:33;6.05;;;4.82;;
18879;SDS011;9572;52.378;13.404;2023-07-20T03:24:00;7.32;;;6.45;;
18879;SDS011;9572;52.378;13.404;2023-07-20T03:26:27;6.22;;;5.35;;
18879;SDS011;9572;52.378;13.404;2023-07-20T03:28:54;6.22;;;5.28;;
18879;SDS011;9572;52.378;13.404;2023-07-20T03:31:21;8.23;;;5.65;;
18879;SDS011;9572;52.378;13.404;2023-07-20T03:33:49;8.00;;;5.80;;
18879;SDS011;9572;52.378;13.404;2023-07-20T03:36:16;9.15;;;5.22;;
18879;SDS011;9572;52.378;13.404;2023-07-20T03:38:43;7.30;;;5.53;;
18879;SDS011;9572;52.378;13.404;2023-07-20T03:41:10;8.60;;;6.32;;
18879;SDS011;9572;52.378;13.404;2023-07-20T03:43:37;6.68;;;5.68;;
18879;SDS011;9572;52.378;13.404;2023-07-20T03:46:04;6.45;;;5.88;;
18879;SDS011;9572;52.378;13.404;2023-07-20T03:48:32;7.22;;;5.60;;
18879;SDS011;9572;52.378;13.404;2023-07-20T03:51:00;10.13;;;6.90;;
18879;SDS011;9572;52.378;13.404;2023-07-20T03:53:27;8.20;;;6.22;;
18879;SDS011;9572;52.378;13.404;2023-07-20T03:55:55;8.63;;;7.80;;
18879;SDS011;9572;52.378;13.404;2023-07-20T03:58:22;7.85;;;7.13;;
18879;SDS011;9572;52.378;13.404;2023-07-20T04:00:50;12.05;;;7.00;;
18879;SDS011;9572;52.378;13.404;2023-07-20T04:03:18;7.13;;;6.43;;
18879;SDS011;9572;52.378;13.404;2023-07-20T04:05:45;5.80;;;5.07;;
18879;SDS011;9572;52.378;13.404;2023-07-20T04:08:14;9.20;;;7.00;;
18879;SDS011;9572;52.378;13.404;2023-07-20T04:10:43;7.25;;;6.55;;
18879;SDS011;9572;52.378;13.404;2023-07-20T04:13:10;8.55;;;7.65;;
18879;SDS011;9572;52.378;13.404;2023-07-20T04:15:37;8.93;;;8.02;;
18879;SDS011;9572;52.378;13.404;2023-07-20T04:18:04;7.90;;;7.10;;
18879;SDS011;9572;52.378;13.404;2023-07-20T04:20:31;8.77;;;7.97;;
18879;SDS011;9572;52.378;13.404;2023-07-20T04:22:59;9.57;;;8.13;;
18879;SDS011;9572;52.378;13.404;2023-07-20T04:25:28;9.27;;;8.13;;
18879;SDS011;9572;52.378;13.404;2023-07-20T04:27:55;8.13;;;7.40;;
18879;SDS011;9572;52.378;13.404;2023-07-20T04:30:22;14.43;;;9.73;;
18879;SDS011;9572;52.378;13.404;2023-07-20T04:32:49;11.57;;;8.57;;
18879;SDS011;9572;52.378;13.404;2023-07-20T04:35:17;13.40;;;9.27;;
18879;SDS011;9572;52.378;13.404;2023-07-20T04:38:05;12.95;;;9.77;;
18879;SDS011;9572;52.378;13.404;2023-07-20T04:40:34;12.00;;;9.45;;
18879;SDS011;9572;52.378;13.404;2023-07-20T04:43:01;13.23;;;9.43;;
18879;SDS011;9572;52.378;13.404;2023-07-20T04:45:28;13.30;;;10.10;;
18879;SDS011;9572;52.378;13.404;2023-07-20T04:47:55;9.60;;;8.50;;
18879;SDS011;9572;52.378;13.404;2023-07-20T04:50:22;9.13;;;7.13;;
18879;SDS011;9572;52.378;13.404;2023-07-20T04:52:50;9.68;;;8.68;;
18879;SDS011;9572;52.378;13.404;2023-07-20T04:55:18;11.80;;;9.05;;
18879;SDS011;9572;52.378;13.404;2023-07-20T04:57:46;13.90;;;9.95;;
18879;SDS011;9572;52.378;13.404;2023-07-20T05:00:13;13.43;;;9.93;;
18879;SDS011;9572;52.378;13.404;2023-07-20T05:02:41;10.95;;;9.40;;
18879;SDS011;9572;52.378;13.404;2023-07-20T05:05:09;12.63;;;8.30;;
18879;SDS011;9572;52.378;13.404;2023-07-20T05:07:36;8.85;;;7.97;;
18879;SDS011;9572;52.378;13.404;2023-07-20T05:10:03;10.60;;;9.52;;
18879;SDS011;9572;52.378;13.404;2023-07-20T05:12:31;12.32;;;8.32;;
18879;SDS011;9572;52.378;13.404;2023-07-20T05:15:00;9.38;;;7.57;;
18879;SDS011;9572;52.378;13.404;2023-07-20T05:17:27;10.13;;;8.00;;
18879;SDS011;9572;52.378;13.404;2023-07-20T05:19:53;8.95;;;8.05;;
18879;SDS011;9572;52.378;13.404;2023-07-20T05:22:20;9.82;;;7.40;;
18879;SDS011;9572;52.378;13.404;2023-07-20T05:24:48;12.35;;;8.52;;
18879;SDS011;9572;52.378;13.404;2023-07-20T05:27:15;9.10;;;8.02;;
18879;SDS011;9572;52.378;13.404;2023-07-20T05:29:43;8.98;;;6.72;;
18879;SDS011;9572;52.378;13.404;2023-07-20T05:32:12;9.38;;;8.23;;
18879;SDS011;9572;52.378;13.404;2023-07-20T05:34:39;11.73;;;7.55;;
18879;SDS011;9572;52.378;13.404;2023-07-20T05:37:06;11.35;;;7.93;;
18879;SDS011;9572;52.378;13.404;2023-07-20T05:39:33;7.47;;;5.65;;
18879;SDS011;9572;52.378;13.404;2023-07-20T05:42:00;6.72;;;6.00;;
18879;SDS011;9572;52.378;13.404;2023-07-20T05:44:27;6.72;;;6.10;;
18879;SDS011;9572;52.378;13.404;2023-07-20T05:46:54;5.57;;;5.05;;
18879;SDS011;9572;52.378;13.404;2023-07-20T05:49:23;7.07;;;5.45;;
18879;SDS011;9572;52.378;13.404;2023-07-20T05:51:50;6.18;;;5.22;;
18879;SDS011;9572;52.378;13.404;2023-07-20T05:54:17;6.25;;;5.65;;
18879;SDS011;9572;52.378;13.404;2023-07-20T05:56:45;7.50;;;6.40;;
18879;SDS011;9572;52.378;13.404;2023-07-20T05:59:12;8.05;;;6.15;;
18879;SDS011;9572;52.378;13.404;2023-07-20T06:01:39;10.82;;;6.80;;
18879;SDS011;9572;52.378;13.404;2023-07-20T06:04:06;7.13;;;6.28;;
18879;SDS011;9572;52.378;13.404;2023-07-20T06:06:34;8.63;;;5.28;;
18879;SDS011;9572;52.378;13.404;2023-07-20T06:09:02;5.43;;;4.93;;
18879;SDS011;9572;52.378;13.404;2023-07-20T06:11:29;6.57;;;5.93;;
18879;SDS011;9572;52.378;13.404;2023-07-20T06:13:56;9.65;;;6.00;;
18879;SDS011;9572;52.378;13.404;2023-07-20T06:16:23;5.00;;;4.22;;
18879;SDS011;9572;52.378;13.404;2023-07-20T06:18:50;7.60;;;5.45;;
18879;SDS011;9572;52.378;13.404;2023-07-20T06:21:17;6.50;;;5.53;;
18879;SDS011;9572;52.378;13.404;2023-07-20T06:23:46;8.55;;;5.88;;
18879;SDS011;9572;52.378;13.404;2023-07-20T06:26:16;7.68;;;5.78;;
18879;SDS011;9572;52.378;13.404;2023-07-20T06:28:45;5.63;;;4.70;;
18879;SDS011;9572;52.378;13.404;2023-07-20T06:31:11;5.75;;;5.00;;
18879;SDS011;9572;52.378;13.404;2023-07-20T06:33:38;7.00;;;4.88;;
18879;SDS011;9572;52.378;13.404;2023-07-20T06:36:05;5.20;;;4.70;;
18879;SDS011;9572;52.378;13.404;2023-07-20T06:38:32;6.20;;;5.60;;
18879;SDS011;9572;52.378;13.404;2023-07-20T06:41:01;7.05;;;5.60;;
18879;SDS011;9572;52.378;13.404;2023-07-20T06:43:28;7.18;;;5.30;;
18879;SDS011;9572;52.378;13.404;2023-07-20T06:45:54;8.85;;;4.55;;
18879;SDS011;9572;52.378;13.404;2023-07-20T06:48:21;6.00;;;4.70;;
18879;SDS011;9572;52.378;13.404;2023-07-20T06:50:50;4.93;;;3.58;;
18879;SDS011;9572;52.378;13.404;2023-07-20T06:53:17;4.07;;;3.67;;
18879;SDS011;9572;52.378;13.404;2023-07-20T06:55:47;4.20;;;3.80;;
18879;SDS011;9572;52.378;13.404;2023-07-20T06:58:19;5.60;;;3.20;;
18879;SDS011;9572;52.378;13.404;2023-07-20T07:00:47;5.50;;;4.15;;
18879;SDS011;9572;52.378;13.404;2023-07-20T07:03:14;6.47;;;3.53;;
18879;SDS011;9572;52.378;13.404;2023-07-20T07:05:48;4.40;;;3.10;;
18879;SDS011;9572;52.378;13.404;2023-07-20T07:11:23;2.58;;;2.00;;
18879;SDS011;9572;52.378;13.404;2023-07-20T07:13:56;5.75;;;2.20;;
18879;SDS011;9572;52.378;13.404;2023-07-20T07:16:23;2.55;;;1.52;;
18879;SDS011;9572;52.378;13.404;2023-07-20T07:18:50;1.60;;;1.50;;
18879;SDS011;9572;52.378;13.404;2023-07-20T07:21:17;1.90;;;1.50;;
18879;SDS011;9572;52.378;13.404;2023-07-20T07:23:45;3.35;;;1.40;;
18879;SDS011;9572;52.378;13.404;2023-07-20T07:26:13;1.60;;;1.40;;
18879;SDS011;9572;52.378;13.404;2023-07-20T07:28:39;1.48;;;1.38;;
18879;SDS011;9572;52.378;13.404;2023-07-20T07:31:08;1.90;;;1.33;;
18879;SDS011;9572;52.378;13.404;2023-07-20T07:33:35;1.75;;;1.33;;
18879;SDS011;9572;52.378;13.404;2023-07-20T07:36:03;1.48;;;1.35;;
18879;SDS011;9572;52.378;13.404;2023-07-20T07:38:30;1.75;;;1.60;;
18879;SDS011;9572;52.378;13.404;2023-07-20T07:40:57;4.20;;;1.65;;
18879;SDS011;9572;52.378;13.404;2023-07-20T07:43:24;1.80;;;1.10;;
18879;SDS011;9572;52.378;13.404;2023-07-20T07:45:53;2.05;;;0.82;;
18879;SDS011;9572;52.378;13.404;2023-07-20T07:48:22;2.75;;;0.63;;
18879;SDS011;9572;52.378;13.404;2023-07-20T07:50:50;0.77;;;0.70;;
18879;SDS011;9572;52.378;13.404;2023-07-20T07:53:17;1.30;;;0.70;;
18879;SDS011;9572;52.378;13.404;2023-07-20T07:55:45;1.60;;;0.68;;
18879;SDS011;9572;52.378;13.404;2023-07-20T07:58:13;1.48;;;0.70;;
18879;SDS011;9572;52.378;13.404;2023-07-20T08:00:40;1.23;;;0.80;;
18879;SDS011;9572;52.378;13.404;2023-07-20T08:03:08;1.70;;;0.68;;
18879;SDS011;9572;52.378;13.404;2023-07-20T08:05:38;0.60;;;0.60;;
18879;SDS011;9572;52.378;13.404;2023-07-20T08:08:04;0.55;;;0.50;;
18879;SDS011;9572;52.378;13.404;2023-07-20T08:10:31;0.60;;;0.60;;
18879;SDS011;9572;52.378;13.404;2023-07-20T08:12:59;0.65;;;0.60;;
18879;SDS011;9572;52.378;13.404;2023-07-20T08:15:25;0.90;;;0.60;;
18879;SDS011;9572;52.378;13.404;2023-07-20T08:17:52;1.10;;;0.80;;
18879;SDS011;9572;52.378;13.404;2023-07-20T08:20:19;0.70;;;0.63;;
18879;SDS011;9572;52.378;13.404;2023-07-20T08:22:52;1.20;;;0.70;;
18879;SDS011;9572;52.378;13.404;2023-07-20T08:25:20;0.80;;;0.80;;
18879;SDS011;9572;52.378;13.404;2023-07-20T08:27:47;0.40;;;0.40;;
18879;SDS011;9572;52.378;13.404;2023-07-20T08:30:14;0.77;;;0.55;;
18879;SDS011;9572;52.378;13.404;2023-07-20T08:32:41;0.70;;;0.50;;
18879;SDS011;9572;52.378;13.404;2023-07-20T08:35:08;0.82;;;0.50;;
18879;SDS011;9572;52.378;13.404;2023-07-20T08:37:35;0.57;;;0.47;;
18879;SDS011;9572;52.378;13.404;2023-07-20T08:40:04;1.00;;;0.60;;
18879;SDS011;9572;52.378;13.404;2023-07-20T08:42:34;2.45;;;0.70;;
18879;SDS011;9572;52.378;13.404;2023-07-20T08:45:02;0.57;;;0.40;;
18879;SDS011;9572;52.378;13.404;2023-07-20T08:47:34;0.77;;;0.43;;
18879;SDS011;9572;52.378;13.404;2023-07-20T08:50:02;1.35;;;0.77;;
18879;SDS011;9572;52.378;13.404;2023-07-20T08:52:31;1.85;;;0.40;;
18879;SDS011;9572;52.378;13.404;2023-07-20T08:55:00;0.47;;;0.40;;
18879;SDS011;9572;52.378;13.404;2023-07-20T08:57:30;1.13;;;0.60;;
18879;SDS011;9572;52.378;13.404;2023-07-20T08:59:59;0.50;;;0.40;;
18879;SDS011;9572;52.378;13.404;2023-07-20T09:02:29;0.52;;;0.30;;
18879;SDS011;9572;52.378;13.404;2023-07-20T09:04:58;0.90;;;0.47;;
18879;SDS011;9572;52.378;13.404;2023-07-20T09:07:25;0.60;;;0.43;;
18879;SDS011;9572;52.378;13.404;2023-07-20T09:09:52;0.43;;;0.38;;
18879;SDS011;9572;52.378;13.404;2023-07-20T09:12:22;1.98;;;0.40;;
18879;SDS011;9572;52.378;13.404;2023-07-20T09:14:51;1.65;;;0.60;;
18879;SDS011;9572;52.378;13.404;2023-07-20T09:17:18;0.73;;;0.55;;
18879;SDS011;9572;52.378;13.404;2023-07-20T09:19:45;2.85;;;0.60;;
18879;SDS011;9572;52.378;13.404;2023-07-20T09:22:13;0.77;;;0.55;;
18879;SDS011;9572;52.378;13.404;2023-07-20T09:24:40;0.75;;;0.50;;
18879;SDS011;9572;52.378;13.404;2023-07-20T09:27:07;2.42;;;0.70;;
18879;SDS011;9572;52.378;13.404;2023-07-20T09:29:39;0.50;;;0.50;;
18879;SDS011;9572;52.378;13.404;2023-07-20T09:32:17;0.50;;;0.40;;
18879;SDS011;9572;52.378;13.404;2023-07-20T09:34:45;3.42;;;0.50;;
18879;SDS011;9572;52.378;13.404;2023-07-20T09:37:12;1.02;;;0.40;;
18879;SDS011;9572;52.378;13.404;2023-07-20T09:39:42;1.65;;;0.70;;
18879;SDS011;9572;52.378;13.404;2023-07-20T09:42:10;1.33;;;0.80;;
18879;SDS011;9572;52.378;13.404;2023-07-20T09:44:38;2.33;;;0.50;;
18879;SDS011;9572;52.378;13.404;2023-07-20T09:47:06;3.95;;;0.65;;
18879;SDS011;9572;52.378;13.404;2023-07-20T09:49:37;0.50;;;0.50;;
18879;SDS011;9572;52.378;13.404;2023-07-20T09:52:06;3.90;;;0.82;;
18879;SDS011;9572;52.378;13.404;2023-07-20T09:54:34;2.78;;;0.63;;
18879;SDS011;9572;52.378;13.404;2023-07-20T09:57:03;0.65;;;0.38;;
18879;SDS011;9572;52.378;13.404;2023-07-20T09:59:32;0.60;;;0.40;;
18879;SDS011;9572;52.378;13.404;2023-07-20T10:01:59;0.40;;;0.30;;
18879;SDS011;9572;52.378;13.404;2023-07-20T10:04:28;1.17;;;0.57;;
18879;SDS011;9572;52.378;13.404;2023-07-20T10:06:58;2.00;;;0.70;;
18879;SDS011;9572;52.378;13.404;2023-07-20T10:09:27;2.13;;;0.50;;
18879;SDS011;9572;52.378;13.404;2023-07-20T10:11:55;0.55;;;0.50;;
18879;SDS011;9572;52.378;13.404;2023-07-20T10:14:24;2.97;;;0.50;;
18879;SDS011;9572;52.378;13.404;2023-07-20T10:16:58;0.50;;;0.50;;
18879;SDS011;9572;52.378;13.404;2023-07-20T10:19:29;0.68;;;0.35;;
18879;SDS011;9572;52.378;13.404;2023-07-20T10:22:03;4.13;;;0.40;;
18879;SDS011;9572;52.378;13.404;2023-07-20T10:24:38;1.02;;;0.50;;
18879;SDS011;9572;52.378;13.404;2023-07-20T10:27:05;0.45;;;0.30;;
18879;SDS011;9572;52.378;13.404;2023-07-20T10:29:33;0.85;;;0.38;;
18879;SDS011;9572;52.378;13.404;2023-07-20T10:32:00;2.65;;;0.77;;
18879;SDS011;9572;52.378;13.404;2023-07-20T10:34:28;3.13;;;0.30;;
18879;SDS011;9572;52.378;13.404;2023-07-20T10:36:55;1.40;;;0.50;;
18879;SDS011;9572;52.378;13.404;2023-07-20T10:39:23;0.55;;;0.55;;
18879;SDS011;9572;52.378;13.404;2023-07-20T10:41:59;2.15;;;0.40;;
18879;SDS011;9572;52.378;13.404;2023-07-20T10:44:28;1.30;;;0.70;;
18879;SDS011;9572;52.378;13.404;2023-07-20T10:46:59;1.05;;;0.30;;
18879;SDS011;9572;52.378;13.404;2023-07-20T10:49:27;1.15;;;0.30;;
18879;SDS011;9572;52.378;13.404;2023-07-20T10:51:57;1.40;;;0.40;;
18879;SDS011;9572;52.378;13.404;2023-07-20T10:54:35;1.08;;;0.50;;
18879;SDS011;9572;52.378;13.404;2023-07-20T11:00:09;1.00;;;0.43;;
18879;SDS011;9572;52.378;13.404;2023-07-20T11:02:47;1.85;;;0.30;;
18879;SDS011;9572;52.378;13.404;2023-07-20T11:05:37;2.60;;;0.50;;
18879;SDS011;9572;52.378;13.404;2023-07-20T11:08:06;2.05;;;0.30;;
18879;SDS011;9572;52.378;13.404;2023-07-20T11:10:37;0.25;;;0.20;;
18879;SDS011;9572;52.378;13.404;2023-07-20T11:13:18;1.95;;;0.38;;
18879;SDS011;9572;52.378;13.404;2023-07-20T11:15:48;3.00;;;0.45;;
18879;SDS011;9572;52.378;13.404;2023-07-20T11:18:28;1.55;;;0.40;;
18879;SDS011;9572;52.378;13.404;2023-07-20T11:20:56;2.50;;;0.30;;
18879;SDS011;9572;52.378;13.404;2023-07-20T11:23:23;0.50;;;0.50;;
18879;SDS011;9572;52.378;13.404;2023-07-20T11:25:52;2.05;;;0.60;;
18879;SDS011;9572;52.378;13.404;2023-07-20T11:28:19;2.00;;;0.30;;
18879;SDS011;9572;52.378;13.404;2023-07-20T11:30:49;0.40;;;0.40;;
18879;SDS011;9572;52.378;13.404;2023-07-20T11:33:18;0.38;;;0.30;;
18879;SDS011;9572;52.378;13.404;2023-07-20T11:35:45;1.33;;;0.30;;
18879;SDS011;9572;52.378;13.404;2023-07-20T11:38:13;0.73;;;0.50;;
18879;SDS011;9572;52.378;13.404;2023-07-20T11:40:42;1.27;;;0.55;;
18879;SDS011;9572;52.378;13.404;2023-07-20T11:43:11;0.70;;;0.50;;
18879;SDS011;9572;52.378;13.404;2023-07-20T11:45:39;3.88;;;0.70;;
18879;SDS011;9572;52.378;13.404;2023-07-20T11:48:06;1.65;;;0.57;;
18879;SDS011;9572;52.378;13.404;2023-07-20T11:50:40;0.60;;;0.40;;
18879;SDS011;9572;52.378;13.404;2023-07-20T11:53:07;0.50;;;0.40;;
18879;SDS011;9572;52.378;13.404;2023-07-20T11:55:34;1.38;;;0.50;;
18879;SDS011;9572;52.378;13.404;2023-07-20T11:58:02;0.93;;;0.50;;
18879;SDS011;9572;52.378;13.404;2023-07-20T12:00:31;0.75;;;0.40;;
18879;SDS011;9572;52.378;13.404;2023-07-20T12:02:59;2.08;;;0.43;;
18879;SDS011;9572;52.378;13.404;2023-07-20T12:05:26;0.55;;;0.40;;
18879;SDS011;9572;52.378;13.404;2023-07-20T12:07:54;1.75;;;0.43;;
18879;SDS011;9572;52.378;13.404;2023-07-20T12:10:24;2.90;;;0.38;;
18879;SDS011;9572;52.378;13.404;2023-07-20T12:12:53;1.35;;;0.47;;
18879;SDS011;9572;52.378;13.404;2023-07-20T12:15:21;2.50;;;0.45;;
18879;SDS011;9572;52.378;13.404;2023-07-20T12:17:50;0.30;;;0.30;;
18879;SDS011;9572;52.378;13.404;2023-07-20T12:20:24;0.88;;;0.50;;
18879;SDS011;9572;52.378;13.404;2023-07-20T12:22:55;1.60;;;0.40;;
18879;SDS011;9572;52.378;13.404;2023-07-20T12:25:23;0.28;;;0.25;;
18879;SDS011;9572;52.378;13.404;2023-07-20T12:28:00;2.30;;;0.60;;
18879;SDS011;9572;52.378;13.404;2023-07-20T12:30:28;0.55;;;0.32;;
18879;SDS011;9572;52.378;13.404;2023-07-20T12:32:56;0.75;;;0.40;;
18879;SDS011;9572;52.378;13.404;2023-07-20T12:35:23;1.77;;;0.40;;
18879;SDS011;9572;52.378;13.404;2023-07-20T12:37:50;0.43;;;0.30;;
18879;SDS011;9572;52.378;13.404;2023-07-20T12:40:18;0.98;;;0.43;;
18879;SDS011;9572;52.378;13.404;2023-07-20T12:42:46;0.40;;;0.32;;
18879;SDS011;9572;52.378;13.404;2023-07-20T12:45:13;2.90;;;0.63;;
18879;SDS011;9572;52.378;13.404;2023-07-20T12:47:40;0.30;;;0.30;;
18879;SDS011;9572;52.378;13.404;2023-07-20T12:50:10;0.40;;;0.40;;
18879;SDS011;9572;52.378;13.404;2023-07-20T12:52:37;0.45;;;0.28;;
18879;SDS011;9572;52.378;13.404;2023-07-20T12:55:06;2.38;;;0.40;;
18879;SDS011;9572;52.378;13.404;2023-07-20T12:57:34;0.63;;;0.30;;
18879;SDS011;9572;52.378;13.404;2023-07-20T13:00:02;2.13;;;0.20;;
18879;SDS011;9572;52.378;13.404;2023-07-20T13:02:31;0.35;;;0.30;;
18879;SDS011;9572;52.378;13.404;2023-07-20T13:04:58;0.73;;;0.40;;
18879;SDS011;9572;52.378;13.404;2023-07-20T13:07:30;1.08;;;0.30;;
18879;SDS011;9572;52.378;13.404;2023-07-20T13:09:58;0.50;;;0.30;;
18879;SDS011;9572;52.378;13.404;2023-07-20T13:12:26;1.58;;;0.30;;
18879;SDS011;9572;52.378;13.404;2023-07-20T13:14:54;0.35;;;0.20;;
18879;SDS011;9572;52.378;13.404;2023-07-20T13:17:21;0.50;;;0.30;;
18879;SDS011;9572;52.378;13.404;2023-07-20T13:19:49;0.25;;;0.20;;
18879;SDS011;9572;52.378;13.404;2023-07-20T13:22:16;1.73;;;0.30;;
18879;SDS011;9572;52.378;13.404;2023-07-20T13:24:45;0.90;;;0.40;;
18879;SDS011;9572;52.378;13.404;2023-07-20T13:27:13;1.48;;;0.52;;
18879;SDS011;9572;52.378;13.404;2023-07-20T13:29:41;0.30;;;0.30;;
18879;SDS011;9572;52.378;13.404;2023-07-20T13:32:08;3.47;;;0.28;;
18879;SDS011;9572;52.378;13.404;2023-07-20T13:34:35;0.73;;;0.30;;
18879;SDS011;9572;52.378;13.404;2023-07-20T13:37:03;0.30;;;0.28;;
18879;SDS011;9572;52.378;13.404;2023-07-20T13:39:30;2.47;;;0.50;;
18879;SDS011;9572;52.378;13.404;2023-07-20T13:41:58;0.35;;;0.20;;
18879;SDS011;9572;52.378;13.404;2023-07-20T13:44:26;0.57;;;0.30;;
18879;SDS011;9572;52.378;13.404;2023-07-20T13:46:53;1.23;;;0.38;;
18879;SDS011;9572;52.378;13.404;2023-07-20T13:49:20;0.80;;;0.30;;
18879;SDS011;9572;52.378;13.404;2023-07-20T13:51:47;0.55;;;0.28;;
18879;SDS011;9572;52.378;13.404;2023-07-20T13:54:14;0.50;;;0.40;;
18879;SDS011;9572;52.378;13.404;2023-07-20T13:56:41;0.45;;;0.30;;
18879;SDS011;9572;52.378;13.404;2023-07-20T13:59:09;0.30;;;0.30;;
18879;SDS011;9572;52.378;13.404;2023-07-20T14:01:36;1.13;;;0.30;;
18879;SDS011;9572;52.378;13.404;2023-07-20T14:04:03;2.53;;;0.30;;
18879;SDS011;9572;52.378;13.404;2023-07-20T14:06:31;0.10;;;0.10;;
18879;SDS011;9572;52.378;13.404;2023-07-20T14:08:59;0.93;;;0.52;;
18879;SDS011;9572;52.378;13.404;2023-07-20T14:11:26;1.65;;;0.60;;
18879;SDS011;9572;52.378;13.404;2023-07-20T14:13:53;0.38;;;0.30;;
18879;SDS011;9572;52.378;13.404;2023-07-20T14:16:24;0.30;;;0.30;;
18879;SDS011;9572;52.378;13.404;2023-07-20T14:18:51;1.10;;;0.30;;
18879;SDS011;9572;52.378;13.404;2023-07-20T14:21:19;1.58;;;0.40;;
18879;SDS011;9572;52.378;13.404;2023-07-20T14:23:46;0.30;;;0.30;;
18879;SDS011;9572;52.378;13.404;2023-07-20T14:26:15;1.50;;;0.35;;
18879;SDS011;9572;52.378;13.404;2023-07-20T14:28:42;1.42;;;0.40;;
18879;SDS011;9572;52.378;13.404;2023-07-20T14:31:09;0.73;;;0.40;;
18879;SDS011;9572;52.378;13.404;2023-07-20T14:33:38;0.20;;;0.20;;
18879;SDS011;9572;52.378;13.404;2023-07-20T14:36:05;0.45;;;0.45;;
18879;SDS011;9572;52.378;13.404;2023-07-20T14:38:33;1.85;;;0.32;;
18879;SDS011;9572;52.378;13.404;2023-07-20T14:41:00;2.83;;;0.40;;
18879;SDS011;9572;52.378;13.404;2023-07-20T14:43:27;2.15;;;0.40;;
18879;SDS011;9572;52.378;13.404;2023-07-20T14:45:54;1.17;;;0.30;;
18879;SDS011;9572;52.378;13.404;2023-07-20T14:48:21;1.80;;;0.40;;
18879;SDS011;9572;52.378;13.404;2023-07-20T14:50:50;0.45;;;0.40;;
18879;SDS011;9572;52.378;13.404;2023-07-20T14:53:17;0.22;;;0.20;;
18879;SDS011;9572;52.378;13.404;2023-07-20T14:55:43;1.17;;;0.30;;
18879;SDS011;9572;52.378;13.404;2023-07-20T14:58:10;5.95;;;0.35;;
18879;SDS011;9572;52.378;13.404;2023-07-20T15:00:37;0.43;;;0.30;;
18879;SDS011;9572;52.378;13.404;2023-07-20T15:03:05;0.70;;;0.32;;